Time;durP1;ratioP1;P1;durP2;ratioP2;P2;SDS_P1;SDS_P2;PMS_P1;PMS_P2;Temp;Humidity;BMP_temperature;BMP_pressure;BME280_temperature;BME280_humidity;BME280_pressure;Samples;Min_cycle;Max_cycle;Signal;HPM_P1;HPM_P2
2021/06/02 00:02:13;;;;;;;4.57;4.13;;;;;;;16.90;66.10;100585.91;4995295;28;102137;-62
2021/06/02 00:04:44;;;;;;;5.05;4.28;;;;;;;16.90;65.82;100574.09;4996960;28;105052;-62
2021/06/02 00:07:18;;;;;;;5.78;4.90;;;;;;;16.90;66.02;100568.59;4997638;28;104133;-62
2021/06/02 00:09:46;;;;;;;4.55;4.15;;;;;;;16.90;65.68;100560.38;4989918;28;102118;-62
2021/06/02 00:12:14;;;;;;;4.45;4.10;;;;;;;16.90;65.81;100563.13;4995876;28;102248;-62
2021/06/02 00:14:40;;;;;;;4.60;4.20;;;;;;;16.90;66.17;100563.91;5001038;28;103731;-62
2021/06/02 00:17:08;;;;;;;5.25;4.47;;;;;;;16.88;66.06;100554.34;4969705;28;105103;-63
2021/06/02 00:19:37;;;;;;;6.28;4.63;;;;;;;16.89;65.73;100548.56;4997249;28;102271;-63
2021/06/02 00:22:05;;;;;;;5.32;4.82;;;;;;;16.88;66.54;100560.69;4995557;28;102558;-62
2021/06/02 00:24:32;;;;;;;4.60;4.20;;;;;;;16.87;65.55;100559.06;5010517;28;102296;-62
2021/06/02 00:27:05;;;;;;;4.78;4.38;;;;;;;16.88;65.45;100559.84;4994161;28;104057;-63
2021/06/02 00:29:34;;;;;;;5.22;4.82;;;;;;;16.88;66.16;100562.59;4995961;28;102181;-62
2021/06/02 00:32:03;;;;;;;4.72;4.32;;;;;;;16.89;65.84;100561.50;4996425;28;102273;-62
2021/06/02 00:34:30;;;;;;;;;;;;;;;16.89;65.87;100562.31;5007749;28;102210;-62
2021/06/02 00:36:59;;;;;;;5.55;5.07;;;;;;;16.89;66.04;100565.06;4997201;28;103967;-62
2021/06/02 00:39:27;;;;;;;5.10;4.70;;;;;;;16.90;65.55;100569.41;4998357;28;102673;-62
2021/06/02 00:41:55;;;;;;;5.57;5.03;;;;;;;16.90;66.10;100563.13;4997848;28;102142;-63
2021/06/02 00:44:23;;;;;;;5.40;5.00;;;;;;;16.90;66.08;100557.63;4997483;28;102474;-62
2021/06/02 00:47:03;;;;;;;4.90;4.50;;;;;;;16.89;65.88;100562.31;4993116;28;102719;-63
2021/06/02 00:49:29;;;;;;;4.82;4.43;;;;;;;16.89;65.61;100565.06;4994493;28;102945;-62
2021/06/02 00:51:57;;;;;;;5.68;5.10;;;;;;;16.89;66.11;100562.31;5000300;28;102154;-62
2021/06/02 00:54:26;;;;;;;5.35;4.80;;;;;;;16.89;65.56;100565.06;5001028;28;102533;-62
2021/06/02 00:56:55;;;;;;;5.23;4.83;;;;;;;16.88;65.60;100566.19;4990875;28;104043;-63
2021/06/02 00:59:30;;;;;;;4.88;4.47;;;;;;;16.88;66.25;100557.94;4999005;28;102435;-62
2021/06/02 01:01:59;;;;;;;5.43;4.90;;;;;;;16.87;65.59;100559.06;4995052;28;102515;-62
2021/06/02 01:04:26;;;;;;;5.28;4.78;;;;;;;16.88;65.52;100560.69;4989021;28;102297;-62
2021/06/02 01:06:54;;;;;;;5.57;5.07;;;;;;;16.88;65.78;100566.19;4992143;28;103980;-63
2021/06/02 01:09:21;;;;;;;5.25;4.85;;;;;;;16.88;65.74;100565.34;4998042;28;102622;-62
2021/06/02 01:11:49;;;;;;;5.20;4.80;;;;;;;16.89;65.82;100565.06;5004820;28;102576;-62
2021/06/02 01:14:20;;;;;;;4.68;4.28;;;;;;;16.88;65.85;100566.19;5007101;28;102399;-62
2021/06/02 01:16:54;;;;;;;5.10;4.70;;;;;;;16.89;65.88;100562.31;4992510;28;105834;-63
2021/06/02 01:19:22;;;;;;;4.45;4.05;;;;;;;16.88;66.04;100560.69;4995079;28;102357;-63
2021/06/02 01:21:55;;;;;;;4.78;4.38;;;;;;;16.86;65.51;100546.44;5005622;28;102339;-63
2021/06/02 01:24:25;;;;;;;5.28;4.78;;;;;;;16.87;66.16;100550.81;4991181;28;102160;-63
2021/06/02 01:26:55;;;;;;;5.82;4.72;;;;;;;16.86;65.68;100551.13;4992116;28;105791;-62
2021/06/02 01:29:23;;;;;;;5.35;4.90;;;;;;;16.87;65.73;100541.75;5004071;28;102567;-62
2021/06/02 01:32:12;;;;;;;5.60;4.97;;;;;;;16.85;65.52;100538.53;5003865;28;102337;-62
2021/06/02 01:35:05;;;;;;;5.18;4.78;;;;;;;16.86;66.03;100535.44;4985448;28;103190;-62
2021/06/02 01:38:04;;;;;;;5.05;4.65;;;;;;;16.86;65.96;100534.66;4987837;28;104061;-63
2021/06/02 01:40:58;;;;;;;4.88;4.47;;;;;;;16.86;65.79;100540.94;4996080;28;102191;-62
2021/06/02 01:43:46;;;;;;;5.15;4.72;;;;;;;16.84;65.54;100529.47;4979993;28;102417;-63
2021/06/02 01:46:31;;;;;;;5.55;4.75;;;;;;;16.85;65.95;100528.34;4993912;28;102713;-62
2021/06/02 01:49:16;;;;;;;5.50;5.00;;;;;;;16.86;65.61;100529.16;5003310;28;104669;-62
2021/06/02 01:52:22;;;;;;;5.63;5.10;;;;;;;16.86;65.85;100518.16;4993168;28;102866;-62
2021/06/02 01:55:27;;;;;;;5.25;4.75;;;;;;;16.85;65.68;100530.28;4970818;28;102735;-62
2021/06/02 01:58:29;;;;;;;5.15;4.75;;;;;;;16.86;65.71;100534.66;4987656;28;103145;-63
2021/06/02 02:01:17;;;;;;;5.20;4.80;;;;;;;16.85;65.95;100522.84;4995100;28;103729;-62
2021/06/02 02:04:20;;;;;;;4.85;4.45;;;;;;;16.85;65.57;100528.34;5007471;28;102777;-62
2021/06/02 02:07:22;;;;;;;5.47;4.97;;;;;;;16.84;65.73;100532.22;5001537;28;102273;-62
2021/06/02 02:10:25;;;;;;;5.22;4.82;;;;;;;16.85;65.67;100527.53;4982430;28;102877;-63
2021/06/02 02:13:02;;;;;;;6.03;5.22;;;;;;;16.86;65.81;100532.69;4991904;28;103967;-62
2021/06/02 02:15:42;;;;;;;6.32;5.18;;;;;;;16.85;65.72;100531.09;5002082;28;102717;-63
2021/06/02 02:18:22;;;;;;;4.80;4.40;;;;;;;16.86;66.19;100526.41;4982986;28;102426;-63
2021/06/02 02:20:57;;;;;;;5.25;4.85;;;;;;;16.85;65.94;100528.34;4990061;28;102497;-62
2021/06/02 02:23:30;;;;;;;5.75;5.22;;;;;;;16.86;66.16;100532.69;4994742;28;105888;-63
2021/06/02 02:26:17;;;;;;;5.65;5.05;;;;;;;16.85;65.71;100528.34;4990617;28;102206;-62
2021/06/02 02:28:53;;;;;;;6.32;5.15;;;;;;;16.85;65.79;100528.34;4996198;28;103197;-62
2021/06/02 02:31:46;;;;;;;4.85;4.45;;;;;;;16.86;65.60;100545.63;5008373;28;102150;-62
2021/06/02 02:34:29;;;;;;;5.70;5.13;;;;;;;16.86;66.05;100549.19;4992436;28;104935;-62
2021/06/02 02:37:03;;;;;;;5.00;4.60;;;;;;;16.85;65.38;100544.03;5001025;28;102647;-62
2021/06/02 02:39:39;;;;;;;5.25;4.85;;;;;;;16.86;65.89;100546.44;5003680;28;102572;-62
2021/06/02 02:42:16;;;;;;;4.80;4.40;;;;;;;16.85;65.67;100544.84;5001819;28;102512;-62
2021/06/02 02:45:07;;;;;;;4.80;4.35;;;;;;;16.86;65.83;100551.13;4998457;28;104219;-62
2021/06/02 02:47:41;;;;;;;5.30;4.80;;;;;;;16.86;66.19;100546.44;4992411;28;102085;-62
2021/06/02 02:50:14;;;;;;;7.05;4.65;;;;;;;16.84;65.73;100548.72;4985835;28;102506;-62
2021/06/02 02:52:54;;;;;;;4.85;4.53;;;;;;;16.84;65.85;100545.97;5000256;28;102205;-62
2021/06/02 02:55:27;;;;;;;5.40;4.90;;;;;;;16.84;65.75;100543.22;5002625;28;103966;-64
2021/06/02 02:58:02;;;;;;;6.05;4.65;;;;;;;16.84;65.78;100534.97;4999842;28;102685;-63
2021/06/02 03:00:35;;;;;;;5.00;4.50;;;;;;;16.84;66.39;100543.22;4994306;28;102450;-63
2021/06/02 03:03:09;;;;;;;4.88;4.35;;;;;;;16.84;66.32;100534.97;4997566;28;102453;-62
2021/06/02 03:05:45;;;;;;;4.47;4.10;;;;;;;16.84;66.01;100537.72;4989413;28;104817;-62
2021/06/02 03:08:17;;;;;;;5.25;4.22;;;;;;;16.85;66.17;100536.59;5009015;28;102024;-63
2021/06/02 03:10:54;;;;;;;6.03;5.38;;;;;;;16.85;66.18;100542.09;4979447;28;102541;-63
2021/06/02 03:13:32;;;;;;;5.13;4.63;;;;;;;16.85;65.98;100528.34;5000845;28;102209;-63
2021/06/02 03:16:05;;;;;;;4.88;4.47;;;;;;;16.85;66.39;100528.34;4986245;28;104122;-62
2021/06/02 03:18:39;;;;;;;4.93;4.53;;;;;;;16.85;66.16;100533.84;5001428;28;102446;-62
2021/06/02 03:21:36;;;;;;;6.00;4.72;;;;;;;16.85;65.86;100538.53;4997168;28;102925;-62
2021/06/02 03:24:12;;;;;;;5.35;4.85;;;;;;;16.85;66.15;100522.84;4998781;28;102666;-63
2021/06/02 03:26:46;;;;;;;6.40;4.53;;;;;;;16.85;66.11;100527.53;4996297;28;104067;-62
2021/06/02 03:29:28;;;;;;;4.90;4.50;;;;;;;16.84;66.49;100515.72;5006761;28;104128;-62
2021/06/02 03:32:04;;;;;;;5.18;4.78;;;;;;;16.84;65.77;100523.97;5008942;28;102745;-62
2021/06/02 03:34:42;;;;;;;5.10;4.70;;;;;;;16.84;65.92;100513.00;5005176;28;103492;-63
2021/06/02 03:37:27;;;;;;;5.07;4.67;;;;;;;16.84;66.24;100515.72;4986293;28;104344;-63
2021/06/02 03:40:08;;;;;;;4.93;4.53;;;;;;;16.84;65.97;100517.66;4993888;28;102638;-63
2021/06/02 03:42:47;;;;;;;5.18;4.78;;;;;;;16.83;66.09;100508.59;4996596;28;102235;-63
2021/06/02 03:45:27;;;;;;;4.90;4.50;;;;;;;16.84;66.34;100502.00;4991163;28;102318;-62
2021/06/02 03:48:05;;;;;;;5.78;4.82;;;;;;;16.83;66.13;100508.59;4992574;28;104280;-63
2021/06/02 03:50:44;;;;;;;4.40;4.03;;;;;;;16.85;66.03;100511.03;4974224;28;102081;-63
2021/06/02 03:53:19;;;;;;;5.03;4.63;;;;;;;16.84;66.30;100510.25;4994615;28;102631;-62
2021/06/02 03:55:54;;;;;;;5.53;4.97;;;;;;;16.85;66.37;100506.34;4993473;28;103071;-62
2021/06/02 03:58:35;;;;;;;4.85;4.47;;;;;;;16.84;66.42;100510.25;5000753;28;102802;-62
2021/06/02 04:01:15;;;;;;;6.22;4.50;;;;;;;16.84;66.08;100499.25;5002141;28;103212;-63
2021/06/02 04:03:55;;;;;;;5.63;5.05;;;;;;;16.84;66.22;100498.41;5005361;28;102328;-62
2021/06/02 04:06:29;;;;;;;5.00;4.60;;;;;;;16.84;66.38;100498.41;5000392;28;102991;-63
2021/06/02 04:09:01;;;;;;;5.35;4.85;;;;;;;16.84;66.14;100498.41;4997090;28;104050;-62
2021/06/02 04:11:35;;;;;;;4.68;4.28;;;;;;;16.83;66.08;100497.59;5002196;28;102092;-62
2021/06/02 04:14:05;;;;;;;4.65;4.25;;;;;;;16.82;66.08;100501.50;4988380;28;102246;-62
2021/06/02 04:16:36;;;;;;;5.20;4.80;;;;;;;16.82;66.32;100498.75;5005182;28;102156;-62
2021/06/02 04:19:04;;;;;;;6.55;5.10;;;;;;;16.81;66.01;100494.38;4993600;28;103864;-62
2021/06/02 04:21:33;;;;;;;5.00;4.60;;;;;;;16.82;65.93;100496.00;5009268;28;102487;-62
2021/06/02 04:24:03;;;;;;;;;;;;;;;16.83;66.52;100497.59;5000041;28;102462;-63
2021/06/02 04:26:30;;;;;;;5.38;4.88;;;;;;;16.83;66.55;100494.84;5006076;28;102874;-62
2021/06/02 04:28:59;;;;;;;5.18;4.70;;;;;;;16.84;66.22;100501.16;5005341;28;102644;-62
2021/06/02 04:31:27;;;;;;;5.28;4.88;;;;;;;16.85;66.62;100500.06;4994139;28;103209;-62
2021/06/02 04:34:00;;;;;;;4.22;3.92;;;;;;;16.84;66.57;100496.50;5005612;28;102392;-63
2021/06/02 04:36:28;;;;;;;4.35;4.05;;;;;;;16.83;66.44;100497.59;4996719;28;104243;-63
2021/06/02 04:38:56;;;;;;;5.03;4.63;;;;;;;16.84;66.39;100498.41;5001753;28;104137;-62
2021/06/02 04:41:26;;;;;;;4.22;3.92;;;;;;;16.85;66.41;100494.56;4997828;28;103229;-63
2021/06/02 04:43:54;;;;;;;5.50;4.75;;;;;;;16.86;66.07;100501.66;4994531;28;102277;-62
2021/06/02 04:46:21;;;;;;;5.38;4.30;;;;;;;16.85;66.71;100503.59;4991320;28;102504;-63
2021/06/02 04:49:09;;;;;;;5.60;5.10;;;;;;;16.86;66.41;100490.66;4999328;28;105140;-64
2021/06/02 04:52:11;;;;;;;4.70;4.30;;;;;;;16.85;66.55;100489.88;4987088;28;102649;-62
2021/06/02 04:55:24;;;;;;;5.53;4.57;;;;;;;16.86;66.58;100491.47;4998761;28;102806;-62
2021/06/02 04:58:29;;;;;;;5.15;4.75;;;;;;;16.86;66.20;100494.22;4990773;28;102564;-63
2021/06/02 05:01:21;;;;;;;4.70;4.30;;;;;;;16.86;66.54;100496.97;4959092;28;104661;-62
2021/06/02 05:04:35;;;;;;;5.43;5.00;;;;;;;16.87;66.60;100498.59;4992425;28;104299;-62
2021/06/02 05:07:39;;;;;;;4.60;4.28;;;;;;;16.89;66.47;100499.09;4961008;28;103397;-62
2021/06/02 05:10:43;;;;;;;4.35;3.95;;;;;;;16.89;66.44;100504.59;4987424;28;103216;-62
2021/06/02 05:13:43;;;;;;;4.95;4.03;;;;;;;16.90;66.60;100506.19;4997708;28;104052;-62
2021/06/02 05:16:41;;;;;;;4.78;4.43;;;;;;;16.90;66.40;100495.19;4996674;28;102907;-62
2021/06/02 05:23:16;;;;;;;4.53;4.13;;;;;;;16.90;66.50;100491.66;4907576;28;102823;-62
2021/06/02 05:26:19;;;;;;;4.70;4.32;;;;;;;16.91;66.02;100494.06;4994125;28;104059;-62
2021/06/02 05:29:35;;;;;;;4.00;3.70;;;;;;;16.90;66.39;100491.66;5000031;28;102468;-62
2021/06/02 05:32:38;;;;;;;4.10;3.78;;;;;;;16.90;66.17;100491.66;4994550;28;102805;-62
2021/06/02 05:35:48;;;;;;;4.50;4.13;;;;;;;16.89;66.56;100485.34;5002717;28;102256;-62
2021/06/02 05:38:42;;;;;;;4.40;4.00;;;;;;;16.89;66.61;100485.34;4996161;28;104001;-62
2021/06/02 05:41:10;;;;;;;4.18;3.78;;;;;;;16.90;66.44;100497.16;4999424;28;102535;-64
2021/06/02 05:44:33;;;;;;;4.17;3.80;;;;;;;16.89;66.18;100485.34;4999553;28;102122;-62
2021/06/02 05:47:25;;;;;;;4.28;3.97;;;;;;;16.91;66.47;100509.75;4992838;28;102531;-62
2021/06/02 05:50:28;;;;;;;4.60;4.20;;;;;;;16.91;66.73;100507.81;4973570;28;104085;-63
2021/06/02 05:53:31;;;;;;;4.13;3.67;;;;;;;16.93;66.69;100507.50;4999835;28;102315;-62
2021/06/02 05:56:31;;;;;;;4.25;3.88;;;;;;;16.92;66.72;100506.69;4997041;28;102240;-63
2021/06/02 05:59:31;;;;;;;4.13;3.83;;;;;;;16.93;66.19;100500.06;5006266;28;102276;-62
2021/06/02 06:02:42;;;;;;;4.00;3.60;;;;;;;16.92;66.20;100495.72;4994461;28;104390;-62
2021/06/02 06:05:23;;;;;;;4.38;3.97;;;;;;;16.92;66.46;100501.19;4945408;28;105039;-63
2021/06/02 06:08:29;;;;;;;4.00;3.70;;;;;;;16.91;66.40;100496.81;4995729;28;105155;-62
2021/06/02 06:11:52;;;;;;;3.30;3.10;;;;;;;16.90;66.51;100500.69;4992685;28;102637;-62
2021/06/02 06:15:07;;;;;;;3.95;3.65;;;;;;;16.90;66.43;100497.94;4996630;28;103926;-62
2021/06/02 06:17:47;;;;;;;3.72;3.42;;;;;;;16.91;66.31;100507.00;4993203;28;102711;-62
2021/06/02 06:20:40;;;;;;;3.72;3.38;;;;;;;16.90;66.14;100500.69;5004945;28;102686;-62
2021/06/02 06:23:35;;;;;;;4.03;3.63;;;;;;;16.89;66.08;100507.34;4994045;28;102252;-62
2021/06/02 06:26:08;;;;;;;4.00;3.70;;;;;;;16.89;66.12;100496.34;4996105;28;104078;-62
2021/06/02 06:28:42;;;;;;;3.92;3.63;;;;;;;16.88;66.25;100502.97;4984469;28;102865;-62
2021/06/02 06:31:14;;;;;;;3.50;3.28;;;;;;;16.88;66.58;100499.38;4986265;28;102635;-63
2021/06/02 06:33:43;;;;;;;4.50;4.10;;;;;;;16.89;66.04;100501.03;4987886;28;102174;-62
2021/06/02 06:36:15;;;;;;;3.70;3.40;;;;;;;16.88;66.30;100499.38;4996375;28;103865;-63
2021/06/02 06:38:58;;;;;;;3.63;3.33;;;;;;;16.88;66.46;100500.22;5000054;28;102888;-62
2021/06/02 06:41:28;;;;;;;3.78;3.47;;;;;;;16.88;66.27;100508.47;4988946;28;102480;-62
2021/06/02 06:43:57;;;;;;;3.70;3.40;;;;;;;16.88;66.25;100511.22;4996599;28;102489;-62
2021/06/02 06:46:24;;;;;;;3.95;3.17;;;;;;;16.87;66.67;100498.59;4987356;28;102732;-62
2021/06/02 06:48:54;;;;;;;3.22;2.92;;;;;;;16.89;66.44;100506.53;4993883;28;103981;-62
2021/06/02 06:51:24;;;;;;;3.78;3.10;;;;;;;16.88;66.16;100502.13;4986419;28;103158;-62
2021/06/02 06:53:52;;;;;;;3.45;3.15;;;;;;;16.87;66.38;100498.59;4980022;28;104805;-62
2021/06/02 06:56:19;;;;;;;3.30;3.10;;;;;;;16.88;65.94;100499.38;4987098;28;104316;-62
2021/06/02 06:58:46;;;;;;;2.92;2.72;;;;;;;16.87;66.28;100504.06;4996163;28;103157;-62
2021/06/02 07:01:14;;;;;;;3.33;3.03;;;;;;;16.88;66.62;100499.38;4991491;28;106561;-62
2021/06/02 07:03:42;;;;;;;2.67;2.47;;;;;;;16.86;66.17;100502.47;4983132;28;103796;-62
2021/06/02 07:06:10;;;;;;;3.20;2.90;;;;;;;16.86;66.59;100502.47;4997113;28;103887;-62
2021/06/02 07:08:42;;;;;;;3.40;3.10;;;;;;;16.86;66.55;100494.22;4982486;28;102099;-62
2021/06/02 07:11:13;;;;;;;2.67;2.47;;;;;;;16.86;66.82;100485.97;4994503;28;102225;-62
2021/06/02 07:13:40;;;;;;;;;;;;;;;16.86;66.82;100491.47;4995986;28;102229;-62
2021/06/02 07:16:11;;;;;;;3.17;2.88;;;;;;;16.86;66.42;100490.66;4997912;28;104016;-62
2021/06/02 07:18:41;;;;;;;3.28;2.97;;;;;;;16.86;66.66;100491.47;4998971;28;102935;-62
2021/06/02 07:21:18;;;;;;;3.45;3.10;;;;;;;16.86;66.32;100494.22;4999640;28;102152;-62
2021/06/02 07:23:47;;;;;;;3.00;2.80;;;;;;;16.87;66.60;100497.78;4979926;28;102739;-61
2021/06/02 07:26:13;;;;;;;2.80;2.60;;;;;;;16.87;66.71;100503.28;4983450;28;103924;-62
2021/06/02 07:28:41;;;;;;;2.67;2.47;;;;;;;16.87;66.34;100511.53;4981184;28;102629;-62
2021/06/02 07:31:09;;;;;;;2.80;2.60;;;;;;;16.87;67.00;100509.56;4986942;28;103005;-61
2021/06/02 07:33:36;;;;;;;2.97;2.78;;;;;;;16.87;66.38;100515.06;4976513;28;102384;-62
2021/06/02 07:36:03;;;;;;;3.15;2.85;;;;;;;16.87;66.90;100515.06;4985205;28;102729;-62
2021/06/02 07:38:30;;;;;;;2.72;2.53;;;;;;;16.87;66.75;100514.25;4998911;28;104005;-61
2021/06/02 07:40:58;;;;;;;2.70;2.53;;;;;;;16.86;66.81;100516.22;4977433;28;103848;-62
2021/06/02 07:43:25;;;;;;;3.08;2.78;;;;;;;16.86;66.61;100513.47;4998023;28;102650;-62
2021/06/02 07:45:51;;;;;;;2.78;2.58;;;;;;;16.87;66.89;100515.06;4998990;28;102906;-63
2021/06/02 07:48:18;;;;;;;2.90;2.60;;;;;;;16.86;66.74;100520.91;4976614;28;103045;-62
2021/06/02 07:50:44;;;;;;;3.05;2.40;;;;;;;16.86;66.88;100521.72;4999558;28;104204;-62
2021/06/02 07:53:11;;;;;;;2.80;2.60;;;;;;;16.86;66.97;100513.47;4997686;28;102186;-62
2021/06/02 07:55:38;;;;;;;2.75;2.55;;;;;;;16.86;66.80;100520.91;4998455;28;105381;-62
2021/06/02 07:58:06;;;;;;;2.50;2.35;;;;;;;16.86;66.58;100507.97;4976021;28;102708;-62
2021/06/02 08:00:33;;;;;;;2.60;2.40;;;;;;;16.86;66.31;100507.97;4994688;28;102595;-62
2021/06/02 08:03:01;;;;;;;2.67;2.47;;;;;;;16.85;66.64;100500.84;4978442;28;102732;-62
2021/06/02 08:05:28;;;;;;;2.40;2.20;;;;;;;16.86;66.43;100502.47;5004274;28;103935;-62
2021/06/02 08:07:55;;;;;;;2.22;2.13;;;;;;;16.85;66.52;100505.53;5004940;28;102499;-61
2021/06/02 08:10:22;;;;;;;2.50;2.30;;;;;;;16.85;66.44;100506.34;4994948;28;102659;-62
2021/06/02 08:12:48;;;;;;;2.38;2.17;;;;;;;16.86;66.64;100507.97;5000413;28;102329;-61
2021/06/02 08:15:18;;;;;;;2.88;2.25;;;;;;;16.85;66.89;100511.84;4997593;28;104178;-62
2021/06/02 08:17:45;;;;;;;3.35;2.10;;;;;;;16.85;67.03;100511.84;4996371;28;102301;-62
2021/06/02 08:20:14;;;;;;;;;;;;;;;16.86;66.59;100524.47;4991910;28;102762;-62
2021/06/02 08:22:41;;;;;;;2.03;1.92;;;;;;;16.85;67.15;100528.34;4982603;28;102892;-62
2021/06/02 08:25:11;;;;;;;3.10;2.25;;;;;;;16.86;66.65;100535.44;4998710;28;104094;-62
2021/06/02 08:27:40;;;;;;;2.40;2.20;;;;;;;16.87;67.17;100533.50;5000448;28;102750;-62
2021/06/02 08:30:08;;;;;;;2.00;1.90;;;;;;;16.85;67.11;100533.84;4992380;28;103036;-61
2021/06/02 08:32:37;;;;;;;2.70;2.50;;;;;;;16.85;67.19;100533.84;4996896;28;103117;-62
2021/06/02 08:35:04;;;;;;;2.00;1.90;;;;;;;16.87;66.82;100548.06;4988600;28;104183;-62
2021/06/02 08:37:31;;;;;;;2.50;2.30;;;;;;;16.86;66.63;100551.13;4999527;28;102548;-62
2021/06/02 08:39:58;;;;;;;2.10;2.00;;;;;;;16.86;66.88;100540.94;4993035;28;104717;-62
2021/06/02 08:42:28;;;;;;;2.42;2.08;;;;;;;16.85;66.74;100539.34;4996612;28;102728;-62
2021/06/02 08:44:55;;;;;;;2.33;2.22;;;;;;;16.85;67.16;100550.31;4990706;28;104151;-62
2021/06/02 08:47:21;;;;;;;2.20;2.00;;;;;;;16.85;67.20;100550.31;4998934;28;102733;-62
2021/06/02 08:49:49;;;;;;;2.97;1.80;;;;;;;16.84;66.96;100534.97;4998990;28;102225;-62
2021/06/02 08:52:16;;;;;;;2.45;2.25;;;;;;;16.83;66.97;100536.09;5008457;28;102586;-62
2021/06/02 08:54:43;;;;;;;2.22;2.03;;;;;;;16.84;66.77;100532.22;5007635;28;103737;-62
2021/06/02 08:57:10;;;;;;;2.00;1.90;;;;;;;16.84;66.85;100537.72;4999229;28;102752;-62
2021/06/02 08:59:37;;;;;;;2.00;1.90;;;;;;;16.84;67.02;100537.72;5000304;28;102227;-62
2021/06/02 09:02:04;;;;;;;2.20;2.00;;;;;;;16.85;66.55;100533.03;5005989;28;102511;-62
2021/06/02 09:04:33;;;;;;;2.33;2.13;;;;;;;16.84;66.86;100536.88;5001082;28;104012;-62
2021/06/02 09:07:05;;;;;;;2.08;1.92;;;;;;;16.84;66.46;100536.88;5004187;28;102303;-62
2021/06/02 09:09:33;;;;;;;1.92;1.83;;;;;;;16.83;67.20;100533.34;5000800;28;102410;-62
2021/06/02 09:12:04;;;;;;;2.58;1.90;;;;;;;16.84;66.67;100537.72;4995719;28;102463;-62
2021/06/02 09:14:37;;;;;;;1.90;1.80;;;;;;;16.85;66.83;100539.34;4992777;28;102607;-62
2021/06/02 09:17:05;;;;;;;1.98;1.80;;;;;;;16.84;66.83;100537.72;4999482;28;102470;-62
2021/06/02 09:19:43;;;;;;;3.50;1.88;;;;;;;16.85;66.83;100544.03;4994247;28;103303;-62
2021/06/02 09:22:13;;;;;;;1.90;1.80;;;;;;;16.85;67.17;100544.84;5001057;28;102754;-62
2021/06/02 09:24:55;;;;;;;1.80;1.70;;;;;;;16.85;66.94;100539.34;4993478;28;104108;-62
2021/06/02 09:27:45;;;;;;;2.20;2.00;;;;;;;16.84;67.41;100537.72;4990640;28;102533;-62
2021/06/02 09:30:15;;;;;;;1.90;1.80;;;;;;;16.85;66.77;100547.56;5002177;28;104299;-62
2021/06/02 09:32:42;;;;;;;;;;;;;;;16.85;66.69;100549.53;5000406;28;102209;-62
2021/06/02 09:35:09;;;;;;;2.20;2.00;;;;;;;16.83;67.24;100552.56;5004345;28;103756;-62
2021/06/02 09:37:55;;;;;;;2.17;1.95;;;;;;;16.84;67.09;100553.38;5004216;28;102604;-62
2021/06/02 09:40:25;;;;;;;2.55;1.90;;;;;;;16.83;66.84;100547.06;4995543;28;102518;-62
2021/06/02 09:42:53;;;;;;;1.80;1.70;;;;;;;16.83;67.21;100549.81;4995836;28;102460;-62
2021/06/02 09:45:20;;;;;;;1.67;1.58;;;;;;;16.84;67.42;100553.38;4995183;28;104120;-62
2021/06/02 09:47:48;;;;;;;1.67;1.58;;;;;;;16.84;67.23;100558.88;4986084;28;102136;-62
2021/06/02 09:50:25;;;;;;;1.63;1.52;;;;;;;16.84;67.29;100553.38;5003165;28;102253;-62
2021/06/02 09:52:54;;;;;;;1.90;1.80;;;;;;;16.84;66.96;100556.97;5000412;28;102844;-62
2021/06/02 09:55:21;;;;;;;;;;;;;;;16.84;67.66;100559.72;4997647;28;103910;-62
2021/06/02 09:57:55;;;;;;;1.73;1.63;;;;;;;16.85;67.51;100563.25;4997815;28;102530;-62
2021/06/02 10:00:29;;;;;;;1.70;1.60;;;;;;;16.85;67.45;100564.06;4990541;28;103968;-62
2021/06/02 10:02:59;;;;;;;1.70;1.60;;;;;;;16.85;67.08;100561.31;4976745;28;102863;-62
2021/06/02 10:05:35;;;;;;;2.08;1.70;;;;;;;16.86;67.10;100562.13;4995073;28;104225;-62
2021/06/02 10:08:03;;;;;;;1.70;1.60;;;;;;;16.86;66.98;100568.44;4996069;28;103715;-62
2021/06/02 10:10:31;;;;;;;1.80;1.70;;;;;;;16.85;67.60;100561.31;4998299;28;103257;-62
2021/06/02 10:13:00;;;;;;;2.03;1.77;;;;;;;16.85;67.12;100566.81;4993187;28;102705;-61
2021/06/02 10:15:32;;;;;;;1.75;1.65;;;;;;;16.86;67.08;100568.44;4995850;28;103879;-62
2021/06/02 10:18:00;;;;;;;1.55;1.45;;;;;;;16.86;67.18;100567.63;5002457;28;102182;-62
2021/06/02 10:20:28;;;;;;;2.15;1.98;;;;;;;16.86;67.53;100565.69;5002111;28;103166;-62
2021/06/02 10:22:56;;;;;;;1.80;1.70;;;;;;;16.86;67.42;100573.94;4996672;28;102407;-63
2021/06/02 10:25:28;;;;;;;1.60;1.50;;;;;;;16.87;67.46;100575.53;5002391;28;103866;-62
2021/06/02 10:27:56;;;;;;;2.00;1.80;;;;;;;16.88;67.38;100573.59;5005961;28;102510;-62
2021/06/02 10:30:24;;;;;;;1.70;1.58;;;;;;;16.89;67.42;100578.00;4999952;28;102884;-62
2021/06/02 10:32:53;;;;;;;1.50;1.40;;;;;;;16.88;67.03;100582.69;5001885;28;102616;-62
2021/06/02 10:35:20;;;;;;;;;;;;;;;16.88;67.14;100576.34;4995813;28;102676;-62
2021/06/02 10:37:47;;;;;;;1.60;1.50;;;;;;;16.89;67.12;100578.78;4999922;28;102262;-62
2021/06/02 10:40:19;;;;;;;2.55;1.58;;;;;;;16.90;67.17;100591.41;5003727;28;102422;-62
2021/06/02 10:42:55;;;;;;;1.70;1.60;;;;;;;16.89;67.00;100592.53;5003840;28;102481;-62
2021/06/02 10:45:26;;;;;;;1.50;1.40;;;;;;;16.89;67.25;100592.53;4991924;28;103922;-62
2021/06/02 10:47:59;;;;;;;1.38;1.27;;;;;;;16.89;67.54;100595.28;4992044;28;102349;-62
2021/06/02 10:50:34;;;;;;;1.50;1.40;;;;;;;16.90;67.47;100599.66;5001106;28;102705;-62
2021/06/02 10:53:23;;;;;;;1.50;1.40;;;;;;;16.89;67.15;100600.78;4997656;28;102561;-62
2021/06/02 10:55:52;;;;;;;1.67;1.40;;;;;;;16.90;67.24;100616.16;4993234;28;104015;-62
2021/06/02 10:58:25;;;;;;;1.67;1.40;;;;;;;16.90;67.34;100607.91;4999544;28;102729;-62
2021/06/02 11:01:08;;;;;;;1.65;1.55;;;;;;;16.90;67.14;100618.09;4987473;28;102312;-63
2021/06/02 11:03:36;;;;;;;2.15;1.65;;;;;;;16.90;67.23;100618.91;4985087;28;102547;-61
2021/06/02 11:06:41;;;;;;;1.63;1.50;;;;;;;16.89;67.82;100617.28;4995758;28;105795;-62
2021/06/02 11:09:31;;;;;;;1.42;1.30;;;;;;;16.90;67.26;100616.16;4976517;28;103841;-62
2021/06/02 11:12:03;;;;;;;2.85;1.52;;;;;;;16.91;67.39;100620.50;4968555;28;102668;-62
2021/06/02 11:14:31;;;;;;;1.60;1.50;;;;;;;16.90;67.81;100618.91;4992302;28;102671;-62
2021/06/02 11:17:11;;;;;;;1.52;1.42;;;;;;;16.90;67.67;100618.09;4996132;28;104097;-62
2021/06/02 11:19:46;;;;;;;1.60;1.48;;;;;;;16.90;67.36;100629.88;4996927;28;102477;-62
2021/06/02 11:22:15;;;;;;;1.67;1.58;;;;;;;16.89;67.77;100622.78;4997603;28;102584;-62
2021/06/02 11:24:47;;;;;;;1.20;1.10;;;;;;;16.89;67.94;100633.78;4995995;28;103143;-62
2021/06/02 11:27:33;;;;;;;;;;;;;;;16.90;67.57;100631.84;4985999;28;103074;-62
2021/06/02 11:30:28;;;;;;;1.35;1.25;;;;;;;16.89;67.90;100627.47;4987631;28;102505;-62
2021/06/02 11:32:59;;;;;;;1.33;1.23;;;;;;;16.90;67.73;100638.13;4990148;28;102225;-62
2021/06/02 11:35:58;;;;;;;1.40;1.30;;;;;;;16.88;67.48;100632.16;4996879;28;102121;-62
2021/06/02 11:38:26;;;;;;;1.30;1.20;;;;;;;16.88;67.44;100623.91;4986186;28;103853;-62
2021/06/02 11:40:54;;;;;;;1.30;1.20;;;;;;;16.89;67.88;100632.97;4991771;28;102556;-62
2021/06/02 11:43:21;;;;;;;1.30;1.20;;;;;;;16.89;67.97;100635.72;4996153;28;102861;-63
2021/06/02 11:45:50;;;;;;;1.50;1.40;;;;;;;16.89;67.54;100638.47;4999853;28;103151;-63
2021/06/02 11:48:25;;;;;;;1.40;1.30;;;;;;;16.88;67.92;100634.91;4990351;28;103953;-62
2021/06/02 11:50:52;;;;;;;1.40;1.13;;;;;;;16.88;67.59;100637.66;4999992;28;102699;-63
2021/06/02 11:53:20;;;;;;;1.58;1.05;;;;;;;16.89;68.14;100642.03;4994025;28;102382;-62
2021/06/02 11:55:48;;;;;;;1.60;1.50;;;;;;;16.88;67.96;100637.66;4994012;28;103061;-62
2021/06/02 11:58:14;;;;;;;1.67;1.13;;;;;;;16.88;67.87;100636.81;4993851;28;104539;-65
2021/06/02 12:00:41;;;;;;;1.20;1.10;;;;;;;16.89;68.16;100639.28;4988889;28;103495;-62
2021/06/02 12:03:11;;;;;;;1.42;1.33;;;;;;;16.88;67.95;100650.56;4994860;28;102987;-62
2021/06/02 12:05:40;;;;;;;1.33;1.23;;;;;;;16.88;67.97;100637.66;4996184;28;102412;-62